South AfricaFixed distance
Two Oceans Marathon
15 Apr1995
Distance
56km
Finishers
6,3295,640 men688 women
Winning time
3:10:53h
Median pace
10.60km/h
Pace distribution
6,328 finishers · 9.33–17.60 km/h · mean 11.02
Every finisher ran the same 56 km course, so these paces are directly comparable.
Histogram of finisher pace. 6,328 finishers ranged from 9.33 to 17.60 kilometres per hour, with a mean of 11.02 and a median of 10.60. The busiest band is 9.5 to 10.0 kilometres per hour, with 1,429 finishers.
Results
Ranks 751–800 of 6,328
| Rank | Runner | Time | Pace | Cat. | Placing |
|---|---|---|---|---|---|
| 751 | Berry, JohnSouth AfricaMan | 4:22:32h | 12.80 | M40 | 730th M · 86th M40 |
| 752 | Taylor, DanielSouth AfricaMan | 4:22:36h | 12.79 | M35 | 731st M · 172nd M35 |
| 753 | Vollmer, JohnSouth AfricaMan | 4:22:38h | 12.79 | M35 | 732nd M · 173rd M35 |
| 754 | Steyn, StephanusSouth AfricaMan | 4:22:39h | 12.79 | M35 | 733rd M · 174th M35 |
| 755 | Brown, MikeSouth AfricaMan | 4:22:44h | 12.79 | M35 | 734th M · 175th M35 |
| 756 | McMurray, IanSouth AfricaMan | 4:22:47h | 12.79 | M45 | 735th M · 32nd M45 |
| 757 | Brink, DirkSouth AfricaMan | 4:22:50h | 12.78 | M35 | 736th M · 176th M35 |
| 758 | Naidoo, RajahSouth AfricaMan | 4:23:02h | 12.77 | M40 | 737th M · 87th M40 |
| 759 | Fouche, LeonSouth AfricaMan | 4:23:08h | 12.77 | M40 | 738th M · 88th M40 |
| 760 | Petersen, DavidSouth AfricaMan | 4:23:12h | 12.77 | M23 | 739th M · 401st M23 |
| 761 | Butcher, RichardSouth AfricaMan | 4:23:15h | 12.76 | M45 | 740th M · 33rd M45 |
| 762 | Gray, MartinSouth AfricaMan | 4:23:16h | 12.76 | M35 | 741st M · 177th M35 |
| 763 | Hayes, MarkSouth AfricaMan | 4:23:21h | 12.76 | M35 | 742nd M · 178th M35 |
| 764 | Delport, JohanSouth AfricaMan | 4:23:21h | 12.76 | M35 | 742nd M · 178th M35 |
| 765 | Potgieter, Pieter (Hein)South AfricaMan | 4:23:24h | 12.76 | M23 | 744th M · 402nd M23 |
| 766 | Graham, HenrySouth AfricaMan | 4:23:26h | 12.76 | M40 | 745th M · 89th M40 |
| 767 | Graham, AdrianSouth AfricaMan | 4:23:27h | 12.75 | M40 | 746th M · 90th M40 |
| 768 | Walland, IanSouth AfricaMan | 4:23:29h | 12.75 | M40 | 747th M · 91st M40 |
| 769 | Govender, ShamSouth AfricaMan | 4:23:30h | 12.75 | M23 | 748th M · 403rd M23 |
| 770 | Fitzell, LukeSouth AfricaMan | 4:23:33h | 12.75 | M23 | 749th M · 404th M23 |
| 771 | Sainsbury, ChetSouth AfricaMan | 4:23:33h | 12.75 | M50 | 749th M · 11th M50 |
| 772 | Simpson, SeanSouth AfricaMan | 4:23:33h | 12.75 | M23 | 749th M · 404th M23 |
| 773 | Howes, GuySouth AfricaMan | 4:23:34h | 12.75 | M23 | 752nd M · 406th M23 |
| 774 | van der Westhuizen, MarioSouth AfricaMan | 4:23:36h | 12.75 | M23 | 753rd M · 407th M23 |
| 775 | Pieters, MorrisSouth AfricaMan | 4:23:41h | 12.74 | M23 | 754th M · 408th M23 |
| 776 | Hartnick, PeterSouth AfricaMan | 4:23:42h | 12.74 | M23 | 755th M · 409th M23 |
| 777 | Boltman, CarolSouth AfricaWoman | 4:23:42h | 12.74 | W40 | 22nd F · 3rd W40 |
| 778 | Lategan, KobusSouth AfricaMan | 4:23:44h | 12.74 | M23 | 756th M · 410th M23 |
| 779 | Mitton, GerhardSouth AfricaMan | 4:23:45h | 12.74 | M35 | 757th M · 180th M35 |
| 780 | Oosthuizen, OosieSouth AfricaMan | 4:23:46h | 12.74 | M40 | 758th M · 92nd M40 |
| 781 | Phyfer, DarwinSouth AfricaMan | 4:23:46h | 12.74 | M35 | 758th M · 181st M35 |
| 782 | Raath, DanielSouth AfricaMan | 4:23:49h | 12.74 | M23 | 760th M · 411th M23 |
| 783 | Castelyn, SalomeSouth AfricaWoman | 4:23:54h | 12.73 | W23 | 23rd F · 11th W23 |
| 784 | Jonas, IsaacSouth AfricaMan | 4:23:58h | 12.73 | M23 | 761st M · 412th M23 |
| 785 | Johnston, NicholasSouth AfricaMan | 4:24:02h | 12.73 | M35 | 762nd M · 182nd M35 |
| 786 | Steyn, DewaldSouth AfricaMan | 4:24:02h | 12.73 | MU23 | 762nd M · 26th MU23 |
| 787 | Sixaxa, LulamileSouth AfricaMan | 4:24:15h | 12.71 | M35 | 764th M · 183rd M35 |
| 788 | Steyn, JohanSouth AfricaMan | 4:24:16h | 12.71 | M45 | 765th M · 34th M45 |
| 789 | Gilmour, DuncanSouth AfricaMan | 4:24:22h | 12.71 | MU23 | 766th M · 27th MU23 |
| 790 | Maile, GavinSouth AfricaMan | 4:24:25h | 12.71 | M35 | 767th M · 184th M35 |
| 791 | de Villiers Snr, PieterSouth AfricaMan | 4:24:27h | 12.71 | M50 | 768th M · 12th M50 |
| 792 | Rabe, DesmondSouth AfricaMan | 4:24:32h | 12.70 | M35 | 769th M · 185th M35 |
| 793 | Lombaard, JanSouth AfricaMan | 4:24:34h | 12.70 | M23 | 770th M · 413th M23 |
| 794 | Kotze, BennieSouth AfricaMan | 4:24:38h | 12.70 | M50 | 771st M · 13th M50 |
| 795 | Matsemela, CharlesSouth AfricaMan | 4:24:48h | 12.69 | M35 | 772nd M · 186th M35 |
| 796 | Pondo, ThembaSouth AfricaMan | 4:24:48h | 12.69 | M23 | 772nd M · 414th M23 |
| 797 | Pentecost, BarrySouth AfricaMan | 4:24:50h | 12.69 | M40 | 774th M · 93rd M40 |
| 798 | Bobbert, ChrisSouth AfricaMan | 4:24:54h | 12.68 | M40 | 775th M · 94th M40 |
| 799 | Mtati, TempletonSouth AfricaMan | 4:24:57h | 12.68 | M35 | 776th M · 187th M35 |
| 800 | Hilliar, GlennSouth AfricaMan | 4:25:01h | 12.68 | M23 | 777th M · 415th M23 |
- 751Berry, JohnSouth AfricaMan730th M · 86th M40Time4:22:32hPace12.80Cat.M40
- 752Taylor, DanielSouth AfricaMan731st M · 172nd M35Time4:22:36hPace12.79Cat.M35
- 753Vollmer, JohnSouth AfricaMan732nd M · 173rd M35Time4:22:38hPace12.79Cat.M35
- 754Steyn, StephanusSouth AfricaMan733rd M · 174th M35Time4:22:39hPace12.79Cat.M35
- 755Brown, MikeSouth AfricaMan734th M · 175th M35Time4:22:44hPace12.79Cat.M35
- 756McMurray, IanSouth AfricaMan735th M · 32nd M45Time4:22:47hPace12.79Cat.M45
- 757Brink, DirkSouth AfricaMan736th M · 176th M35Time4:22:50hPace12.78Cat.M35
- 758Naidoo, RajahSouth AfricaMan737th M · 87th M40Time4:23:02hPace12.77Cat.M40
- 759Fouche, LeonSouth AfricaMan738th M · 88th M40Time4:23:08hPace12.77Cat.M40
- 760Petersen, DavidSouth AfricaMan739th M · 401st M23Time4:23:12hPace12.77Cat.M23
- 761Butcher, RichardSouth AfricaMan740th M · 33rd M45Time4:23:15hPace12.76Cat.M45
- 762Gray, MartinSouth AfricaMan741st M · 177th M35Time4:23:16hPace12.76Cat.M35
- 763Hayes, MarkSouth AfricaMan742nd M · 178th M35Time4:23:21hPace12.76Cat.M35
- 764Delport, JohanSouth AfricaMan742nd M · 178th M35Time4:23:21hPace12.76Cat.M35
- 765Potgieter, Pieter (Hein)South AfricaMan744th M · 402nd M23Time4:23:24hPace12.76Cat.M23
- 766Graham, HenrySouth AfricaMan745th M · 89th M40Time4:23:26hPace12.76Cat.M40
- 767Graham, AdrianSouth AfricaMan746th M · 90th M40Time4:23:27hPace12.75Cat.M40
- 768Walland, IanSouth AfricaMan747th M · 91st M40Time4:23:29hPace12.75Cat.M40
- 769Govender, ShamSouth AfricaMan748th M · 403rd M23Time4:23:30hPace12.75Cat.M23
- 770Fitzell, LukeSouth AfricaMan749th M · 404th M23Time4:23:33hPace12.75Cat.M23
- 771Sainsbury, ChetSouth AfricaMan749th M · 11th M50Time4:23:33hPace12.75Cat.M50
- 772Simpson, SeanSouth AfricaMan749th M · 404th M23Time4:23:33hPace12.75Cat.M23
- 773Howes, GuySouth AfricaMan752nd M · 406th M23Time4:23:34hPace12.75Cat.M23
- 774van der Westhuizen, MarioSouth AfricaMan753rd M · 407th M23Time4:23:36hPace12.75Cat.M23
- 775Pieters, MorrisSouth AfricaMan754th M · 408th M23Time4:23:41hPace12.74Cat.M23
- 776Hartnick, PeterSouth AfricaMan755th M · 409th M23Time4:23:42hPace12.74Cat.M23
- 777Boltman, CarolSouth AfricaWoman22nd F · 3rd W40Time4:23:42hPace12.74Cat.W40
- 778Lategan, KobusSouth AfricaMan756th M · 410th M23Time4:23:44hPace12.74Cat.M23
- 779Mitton, GerhardSouth AfricaMan757th M · 180th M35Time4:23:45hPace12.74Cat.M35
- 780Oosthuizen, OosieSouth AfricaMan758th M · 92nd M40Time4:23:46hPace12.74Cat.M40
- 781Phyfer, DarwinSouth AfricaMan758th M · 181st M35Time4:23:46hPace12.74Cat.M35
- 782Raath, DanielSouth AfricaMan760th M · 411th M23Time4:23:49hPace12.74Cat.M23
- 783Castelyn, SalomeSouth AfricaWoman23rd F · 11th W23Time4:23:54hPace12.73Cat.W23
- 784Jonas, IsaacSouth AfricaMan761st M · 412th M23Time4:23:58hPace12.73Cat.M23
- 785Johnston, NicholasSouth AfricaMan762nd M · 182nd M35Time4:24:02hPace12.73Cat.M35
- 786Steyn, DewaldSouth AfricaMan762nd M · 26th MU23Time4:24:02hPace12.73Cat.MU23
- 787Sixaxa, LulamileSouth AfricaMan764th M · 183rd M35Time4:24:15hPace12.71Cat.M35
- 788Steyn, JohanSouth AfricaMan765th M · 34th M45Time4:24:16hPace12.71Cat.M45
- 789Gilmour, DuncanSouth AfricaMan766th M · 27th MU23Time4:24:22hPace12.71Cat.MU23
- 790Maile, GavinSouth AfricaMan767th M · 184th M35Time4:24:25hPace12.71Cat.M35
- 791de Villiers Snr, PieterSouth AfricaMan768th M · 12th M50Time4:24:27hPace12.71Cat.M50
- 792Rabe, DesmondSouth AfricaMan769th M · 185th M35Time4:24:32hPace12.70Cat.M35
- 793Lombaard, JanSouth AfricaMan770th M · 413th M23Time4:24:34hPace12.70Cat.M23
- 794Kotze, BennieSouth AfricaMan771st M · 13th M50Time4:24:38hPace12.70Cat.M50
- 795Matsemela, CharlesSouth AfricaMan772nd M · 186th M35Time4:24:48hPace12.69Cat.M35
- 796Pondo, ThembaSouth AfricaMan772nd M · 414th M23Time4:24:48hPace12.69Cat.M23
- 797Pentecost, BarrySouth AfricaMan774th M · 93rd M40Time4:24:50hPace12.69Cat.M40
- 798Bobbert, ChrisSouth AfricaMan775th M · 94th M40Time4:24:54hPace12.68Cat.M40
- 799Mtati, TempletonSouth AfricaMan776th M · 187th M35Time4:24:57hPace12.68Cat.M35
- 800Hilliar, GlennSouth AfricaMan777th M · 415th M23Time4:25:01hPace12.68Cat.M23
Showing ranks 751–800 of 6,328